createdAt,value
2023-01-25T00:01:06.663Z,5.00
2023-01-25T00:03:35.027Z,5.30
2023-01-25T00:06:03.686Z,5.30
2023-01-25T00:08:32.066Z,5.00
2023-01-25T00:11:00.380Z,4.40
2023-01-25T00:13:28.660Z,4.80
2023-01-25T00:16:02.138Z,5.10
2023-01-25T00:18:30.752Z,5.50
2023-01-25T00:20:59.067Z,4.80
2023-01-25T00:23:27.354Z,6.00
2023-01-25T00:25:58.820Z,5.10
2023-01-25T00:28:27.321Z,4.00
2023-01-25T00:30:59.903Z,5.40
2023-01-25T00:33:40.268Z,5.20
2023-01-25T00:36:32.575Z,5.10
2023-01-25T00:39:01.251Z,3.00
2023-01-25T00:41:29.574Z,3.50
2023-01-25T00:43:58.371Z,4.10
2023-01-25T00:46:26.744Z,3.00
2023-01-25T00:48:55.375Z,2.90
2023-01-25T00:51:24.496Z,2.30
2023-01-25T00:53:53.132Z,3.60
2023-01-25T00:56:21.410Z,2.90
2023-01-25T00:58:49.853Z,3.40
2023-01-25T01:01:18.202Z,3.90
2023-01-25T01:03:46.508Z,4.20
2023-01-25T01:06:14.881Z,3.60
2023-01-25T01:08:43.248Z,3.00
2023-01-25T01:11:13.069Z,2.80
2023-01-25T01:13:41.434Z,3.50
2023-01-25T01:16:11.507Z,4.90
2023-01-25T01:18:41.845Z,2.90
2023-01-25T01:21:11.941Z,2.40
2023-01-25T01:23:41.076Z,3.10
2023-01-25T01:26:12.953Z,3.30
2023-01-25T01:28:43.185Z,3.50
2023-01-25T01:31:14.369Z,3.20
2023-01-25T01:36:13.043Z,3.10
2023-01-25T01:38:41.842Z,2.60
2023-01-25T01:41:11.438Z,3.30
2023-01-25T01:43:40.232Z,3.10
2023-01-25T01:46:14.814Z,2.50
2023-01-25T01:48:47.485Z,3.50
2023-01-25T01:51:20.015Z,3.30
2023-01-25T01:53:52.464Z,2.90
2023-01-25T01:56:26.989Z,2.80
2023-01-25T01:58:57.969Z,3.20
2023-01-25T02:01:27.206Z,2.60
2023-01-25T02:03:55.983Z,3.00
2023-01-25T02:06:35.430Z,2.90
2023-01-25T02:09:03.867Z,2.90
2023-01-25T02:11:33.702Z,2.70
2023-01-25T02:14:02.569Z,2.50
2023-01-25T02:16:31.010Z,2.50
2023-01-25T02:19:01.719Z,1.80
2023-01-25T02:21:37.339Z,3.00
2023-01-25T02:24:09.394Z,2.70
2023-01-25T02:26:37.879Z,2.80
2023-01-25T02:29:08.425Z,3.00
2023-01-25T02:31:36.891Z,3.90
2023-01-25T02:34:05.364Z,2.80
2023-01-25T02:36:34.800Z,4.60
2023-01-25T02:39:06.449Z,7.00
2023-01-25T02:41:36.920Z,5.50
2023-01-25T02:44:08.167Z,5.40
2023-01-25T02:46:38.661Z,4.60
2023-01-25T02:49:08.829Z,3.90
2023-01-25T02:51:39.971Z,3.60
2023-01-25T02:54:10.368Z,4.10
2023-01-25T02:56:40.022Z,3.70
2023-01-25T02:59:08.925Z,3.40
2023-01-25T03:01:39.149Z,2.90
2023-01-25T03:04:08.171Z,3.10
2023-01-25T03:06:38.005Z,2.30
2023-01-25T03:09:08.453Z,2.20
2023-01-25T03:11:37.220Z,2.80
2023-01-25T03:14:05.529Z,3.00
2023-01-25T03:16:33.952Z,2.50
2023-01-25T03:19:02.537Z,3.70
2023-01-25T03:21:30.870Z,3.60
2023-01-25T03:24:01.594Z,3.80
2023-01-25T03:26:30.090Z,3.70
2023-01-25T03:28:58.458Z,4.30
2023-01-25T03:31:27.017Z,4.60
2023-01-25T03:33:55.388Z,4.20
2023-01-25T03:36:23.673Z,4.60
2023-01-25T03:38:52.011Z,4.70
2023-01-25T03:41:20.297Z,3.80
2023-01-25T03:43:48.595Z,3.90
2023-01-25T03:46:16.896Z,3.10
2023-01-25T03:48:45.200Z,4.60
2023-01-25T03:51:13.511Z,4.30
2023-01-25T03:53:41.810Z,4.60
2023-01-25T03:56:16.880Z,4.70
2023-01-25T03:58:45.509Z,3.60
2023-01-25T04:01:14.144Z,4.40
2023-01-25T04:03:42.555Z,3.90
2023-01-25T04:06:10.932Z,3.30
2023-01-25T04:08:39.499Z,4.00
2023-01-25T04:11:09.688Z,3.40
2023-01-25T04:13:39.184Z,3.70
2023-01-25T04:16:11.015Z,3.60
2023-01-25T04:18:40.068Z,2.90
2023-01-25T04:21:08.418Z,3.10
2023-01-25T04:23:36.741Z,3.20
2023-01-25T04:26:06.935Z,3.10
2023-01-25T04:28:36.010Z,3.80
2023-01-25T04:31:05.415Z,3.40
2023-01-25T04:33:34.555Z,3.50
2023-01-25T04:36:03.301Z,3.10
2023-01-25T04:38:31.597Z,3.10
2023-01-25T04:40:59.925Z,3.20
2023-01-25T04:43:28.399Z,3.00
2023-01-25T04:45:56.781Z,3.20
2023-01-25T04:48:25.108Z,3.40
2023-01-25T04:50:53.404Z,3.20
2023-01-25T04:53:21.802Z,3.60
2023-01-25T04:55:50.472Z,3.70
2023-01-25T04:58:19.226Z,4.20
2023-01-25T05:00:47.558Z,3.80
2023-01-25T05:03:15.930Z,4.20
2023-01-25T05:05:47.418Z,4.40
2023-01-25T05:08:15.753Z,4.60
2023-01-25T05:10:44.810Z,4.80
2023-01-25T05:13:13.103Z,4.80
2023-01-25T05:15:41.614Z,5.50
2023-01-25T05:18:10.040Z,6.40
2023-01-25T05:20:38.376Z,6.70
2023-01-25T05:23:06.795Z,5.70
2023-01-25T05:25:53.054Z,49.80
2023-01-25T05:28:21.314Z,35.10
2023-01-25T05:30:49.649Z,11.50
2023-01-25T05:33:18.076Z,9.70
2023-01-25T05:35:46.349Z,8.90
2023-01-25T05:38:14.852Z,9.50
2023-01-25T05:40:43.152Z,8.70
2023-01-25T05:43:11.463Z,7.40
2023-01-25T05:45:39.940Z,7.50
2023-01-25T05:48:08.167Z,7.70
2023-01-25T05:50:36.425Z,6.40
2023-01-25T05:53:04.723Z,6.70
2023-01-25T05:55:36.363Z,7.00
2023-01-25T05:58:04.667Z,6.80
2023-01-25T06:00:33.050Z,7.10
2023-01-25T06:03:01.973Z,6.40
2023-01-25T06:05:30.329Z,8.60
2023-01-25T06:07:59.295Z,7.60
2023-01-25T06:10:27.647Z,6.90
2023-01-25T06:12:59.147Z,13.00
2023-01-25T06:15:27.655Z,12.90
2023-01-25T06:17:56.265Z,10.60
2023-01-25T06:20:24.659Z,15.30
2023-01-25T06:22:53.530Z,17.10
2023-01-25T06:25:21.816Z,12.80
2023-01-25T06:27:50.137Z,11.80
2023-01-25T06:30:19.014Z,10.60
2023-01-25T06:32:49.589Z,11.80
2023-01-25T06:35:18.026Z,12.60
2023-01-25T06:37:47.138Z,12.10
2023-01-25T06:40:16.423Z,11.40
2023-01-25T06:42:44.907Z,7.80
2023-01-25T06:45:13.384Z,8.20
2023-01-25T06:47:41.943Z,8.20
2023-01-25T06:50:11.492Z,10.60
2023-01-25T06:52:39.992Z,10.50
2023-01-25T06:55:13.126Z,8.70
2023-01-25T06:57:41.468Z,8.40
2023-01-25T07:00:12.615Z,7.70
2023-01-25T07:05:10.263Z,6.20
2023-01-25T07:07:38.901Z,7.30
2023-01-25T07:10:09.327Z,9.00
2023-01-25T07:12:37.674Z,8.60
2023-01-25T07:15:08.859Z,8.40
2023-01-25T07:17:37.450Z,9.80
2023-01-25T07:20:08.533Z,9.30
2023-01-25T07:25:05.910Z,8.10
2023-01-25T07:27:34.737Z,10.90
2023-01-25T07:30:03.461Z,10.90
2023-01-25T07:32:32.326Z,9.40
2023-01-25T07:35:00.647Z,10.90
2023-01-25T07:37:29.036Z,10.50
2023-01-25T07:39:57.575Z,10.30
2023-01-25T07:42:25.842Z,10.30
2023-01-25T07:44:54.228Z,11.00
2023-01-25T07:47:22.560Z,11.70
2023-01-25T07:49:50.847Z,9.10
2023-01-25T07:52:19.148Z,8.50
2023-01-25T07:54:49.322Z,10.00
2023-01-25T07:57:17.845Z,10.40
2023-01-25T07:59:46.150Z,9.10
2023-01-25T08:02:14.669Z,12.70
2023-01-25T08:04:44.471Z,11.90
2023-01-25T08:07:13.439Z,9.70
2023-01-25T08:09:42.340Z,11.00
2023-01-25T08:12:10.611Z,10.60
2023-01-25T08:14:38.930Z,9.20
2023-01-25T08:17:07.308Z,8.40
2023-01-25T08:19:35.728Z,8.40
2023-01-25T08:22:06.653Z,9.90
2023-01-25T08:24:35.210Z,8.70
2023-01-25T08:27:03.669Z,8.90
2023-01-25T08:29:32.073Z,9.30
2023-01-25T08:32:03.582Z,13.30
2023-01-25T08:34:32.448Z,11.00
2023-01-25T08:37:01.200Z,15.90
2023-01-25T08:39:29.462Z,11.60
2023-01-25T08:41:58.155Z,10.80
2023-01-25T08:44:26.594Z,8.10
2023-01-25T08:46:55.479Z,9.10
2023-01-25T08:49:25.781Z,8.10
2023-01-25T08:51:54.292Z,12.80
2023-01-25T08:54:23.727Z,13.00
2023-01-25T08:56:52.028Z,14.10
2023-01-25T08:59:20.433Z,13.60
2023-01-25T09:01:48.733Z,11.50
2023-01-25T09:04:17.177Z,11.40
2023-01-25T09:06:46.061Z,11.00
2023-01-25T09:09:14.587Z,7.70
2023-01-25T09:11:42.890Z,9.30
2023-01-25T09:14:11.171Z,11.20
2023-01-25T09:16:39.453Z,10.00
2023-01-25T09:19:07.722Z,9.60
2023-01-25T09:21:36.470Z,8.90
2023-01-25T09:24:07.238Z,8.70
2023-01-25T09:26:38.620Z,6.60
2023-01-25T09:29:08.312Z,7.00
2023-01-25T09:31:39.778Z,7.60
2023-01-25T09:34:08.422Z,8.60
2023-01-25T09:36:37.362Z,8.20
2023-01-25T09:39:05.972Z,7.00
2023-01-25T09:41:58.454Z,6.70
2023-01-25T09:44:46.077Z,8.10
2023-01-25T09:47:21.341Z,7.30
2023-01-25T09:50:16.160Z,7.60
2023-01-25T09:53:23.504Z,10.30
2023-01-25T09:55:54.798Z,11.20
2023-01-25T09:58:30.635Z,7.10
2023-01-25T10:01:36.607Z,6.20
2023-01-25T10:04:13.204Z,5.30
2023-01-25T10:06:55.151Z,7.30
2023-01-25T10:09:37.128Z,8.10
2023-01-25T10:12:13.599Z,7.20
2023-01-25T10:14:42.106Z,6.60
2023-01-25T10:17:16.946Z,6.30
2023-01-25T10:19:53.579Z,4.70
2023-01-25T10:22:25.542Z,5.70
2023-01-25T10:25:11.256Z,5.20
2023-01-25T10:27:50.098Z,6.90
2023-01-25T10:30:26.464Z,6.50
2023-01-25T10:32:57.793Z,7.80
2023-01-25T10:35:35.683Z,8.20
2023-01-25T10:38:14.897Z,13.40
2023-01-25T10:40:49.734Z,12.00
2023-01-25T10:43:20.313Z,9.40
2023-01-25T10:45:49.721Z,12.60
2023-01-25T10:48:20.624Z,10.50
2023-01-25T10:50:53.632Z,12.30
2023-01-25T10:53:28.143Z,9.10
2023-01-25T10:56:00.935Z,7.20
2023-01-25T10:58:35.190Z,11.20
2023-01-25T11:01:06.669Z,11.70
2023-01-25T11:03:37.603Z,11.20
2023-01-25T11:06:07.764Z,14.40
2023-01-25T11:08:37.566Z,9.30
2023-01-25T11:11:24.723Z,9.20
2023-01-25T11:13:56.716Z,8.90
2023-01-25T11:16:37.201Z,10.50
2023-01-25T11:19:26.809Z,8.50
2023-01-25T11:21:57.871Z,10.10
2023-01-25T11:27:13.621Z,6.30
2023-01-25T11:29:41.946Z,9.00
2023-01-25T11:32:20.780Z,10.00
2023-01-25T11:34:49.848Z,7.40
2023-01-25T11:37:29.915Z,3.60
2023-01-25T11:40:11.934Z,3.70
2023-01-25T11:42:47.786Z,4.00
2023-01-25T11:45:41.280Z,4.20
2023-01-25T11:48:24.218Z,6.20
2023-01-25T11:51:03.765Z,10.70
2023-01-25T11:53:46.022Z,17.30
2023-01-25T11:56:20.169Z,11.10
2023-01-25T11:59:18.066Z,5.90
2023-01-25T12:02:06.382Z,35.90
2023-01-25T12:04:53.817Z,29.80
2023-01-25T12:07:36.398Z,50.50
2023-01-25T12:10:21.930Z,30.70
2023-01-25T12:13:01.995Z,13.60
2023-01-25T12:15:42.800Z,11.50
2023-01-25T12:18:28.364Z,14.60
2023-01-25T12:21:07.162Z,20.50
2023-01-25T12:23:56.501Z,23.50
2023-01-25T12:26:28.728Z,16.30
2023-01-25T12:29:13.275Z,16.60
2023-01-25T12:31:49.099Z,13.70
2023-01-25T12:34:22.215Z,18.00
2023-01-25T12:36:50.985Z,16.70
2023-01-25T12:39:24.076Z,19.60
2023-01-25T12:42:01.958Z,17.60
2023-01-25T12:44:36.021Z,17.10
2023-01-25T12:47:15.117Z,18.40
2023-01-25T12:49:48.187Z,10.80
2023-01-25T12:52:23.767Z,14.90
2023-01-25T12:54:55.263Z,17.70
2023-01-25T12:57:29.342Z,16.40
2023-01-25T13:00:05.720Z,13.30
2023-01-25T13:03:14.728Z,13.70
2023-01-25T13:05:51.351Z,15.20
2023-01-25T13:08:32.334Z,20.30
2023-01-25T13:11:11.762Z,20.20
2023-01-25T13:13:40.585Z,13.50
2023-01-25T13:16:36.143Z,18.30
2023-01-25T13:19:17.662Z,11.80
2023-01-25T13:21:47.917Z,10.30
2023-01-25T13:24:19.642Z,10.80
2023-01-25T13:27:00.018Z,22.00
2023-01-25T13:29:58.715Z,18.30
2023-01-25T13:32:55.228Z,12.20
2023-01-25T13:35:31.712Z,10.70
2023-01-25T13:38:31.950Z,11.20
2023-01-25T13:41:14.078Z,9.50
2023-01-25T13:43:45.933Z,8.20
2023-01-25T13:46:18.910Z,5.80
2023-01-25T13:48:53.187Z,6.50
2023-01-25T13:51:25.290Z,6.70
2023-01-25T13:53:58.038Z,21.90
2023-01-25T13:56:29.526Z,14.60
2023-01-25T13:58:57.976Z,11.80
2023-01-25T14:01:27.893Z,9.10
2023-01-25T14:03:59.026Z,6.90
2023-01-25T14:06:30.594Z,11.20
2023-01-25T14:09:06.700Z,10.40
2023-01-25T14:11:43.677Z,12.00
2023-01-25T14:14:23.909Z,11.70
2023-01-25T14:17:15.272Z,9.40
2023-01-25T14:19:44.737Z,14.00
2023-01-25T14:22:25.416Z,15.70
2023-01-25T14:25:11.278Z,9.60
2023-01-25T14:27:44.441Z,8.50
2023-01-25T14:30:20.050Z,7.60
2023-01-25T14:32:49.930Z,7.90
2023-01-25T14:35:42.368Z,7.60
2023-01-25T14:38:25.115Z,7.00
2023-01-25T14:40:56.661Z,7.60
2023-01-25T14:43:26.668Z,9.80
2023-01-25T14:45:55.030Z,8.40
2023-01-25T14:48:37.497Z,20.50
2023-01-25T14:51:12.812Z,12.70
2023-01-25T14:53:43.564Z,8.80
2023-01-25T14:56:29.110Z,10.30
2023-01-25T14:59:00.062Z,12.90
2023-01-25T15:01:38.972Z,11.60
2023-01-25T15:04:12.098Z,11.50
2023-01-25T15:06:48.851Z,11.40
2023-01-25T15:09:39.040Z,10.30
2023-01-25T15:12:26.874Z,15.80
2023-01-25T15:14:57.665Z,13.40
2023-01-25T15:17:42.231Z,10.40
2023-01-25T15:20:35.188Z,13.60
2023-01-25T15:23:17.634Z,15.00
2023-01-25T15:25:53.963Z,13.00
2023-01-25T15:28:23.258Z,8.90
2023-01-25T15:30:52.207Z,16.60
2023-01-25T15:33:23.203Z,11.10
2023-01-25T15:35:52.321Z,13.60
2023-01-25T15:38:21.840Z,11.00
2023-01-25T15:40:50.386Z,14.30
2023-01-25T15:43:19.873Z,10.80
2023-01-25T15:45:50.004Z,11.50
2023-01-25T15:48:25.273Z,10.60
2023-01-25T15:50:54.785Z,12.80
2023-01-25T15:53:23.271Z,13.00
2023-01-25T15:55:57.188Z,9.60
2023-01-25T15:58:29.105Z,10.00
2023-01-25T16:00:59.405Z,9.40
2023-01-25T16:03:27.956Z,8.70
2023-01-25T16:06:00.622Z,9.80
2023-01-25T16:08:29.619Z,10.90
2023-01-25T16:10:57.907Z,15.70
2023-01-25T16:13:26.215Z,15.10
2023-01-25T16:15:56.373Z,14.10
2023-01-25T16:18:24.674Z,12.70
2023-01-25T16:20:52.931Z,14.10
2023-01-25T16:23:21.433Z,14.50
2023-01-25T16:25:49.683Z,10.70
2023-01-25T16:28:18.228Z,9.70
2023-01-25T16:30:46.629Z,10.60
2023-01-25T16:33:14.927Z,10.70
2023-01-25T16:35:43.221Z,10.90
2023-01-25T16:38:12.257Z,13.70
2023-01-25T16:40:40.790Z,14.30
2023-01-25T16:43:09.074Z,14.10
2023-01-25T16:45:39.001Z,11.50
2023-01-25T16:48:14.878Z,11.40
2023-01-25T16:50:43.169Z,9.60
2023-01-25T16:53:11.536Z,13.60
2023-01-25T16:55:39.985Z,16.10
2023-01-25T16:58:08.490Z,13.60
2023-01-25T17:00:37.092Z,14.50
2023-01-25T17:03:05.870Z,12.60
2023-01-25T17:05:38.187Z,13.40
2023-01-25T17:08:06.759Z,12.00
2023-01-25T17:10:37.272Z,10.00
2023-01-25T17:13:05.893Z,10.60
2023-01-25T17:15:34.861Z,14.10
2023-01-25T17:18:03.400Z,10.40
2023-01-25T17:20:31.739Z,11.10
2023-01-25T17:23:00.138Z,13.90
2023-01-25T17:25:31.896Z,12.50
2023-01-25T17:28:00.170Z,16.70
2023-01-25T17:30:28.560Z,13.10
2023-01-25T17:32:56.896Z,14.60
2023-01-25T17:35:25.222Z,12.20
2023-01-25T17:37:55.405Z,14.60
2023-01-25T17:40:23.680Z,14.80
2023-01-25T17:42:52.346Z,11.60
2023-01-25T17:45:20.620Z,6.20
2023-01-25T17:47:48.910Z,7.40
2023-01-25T17:50:18.005Z,7.70
2023-01-25T17:52:46.345Z,6.50
2023-01-25T17:55:14.928Z,5.20
2023-01-25T17:57:43.749Z,6.30
2023-01-25T18:00:14.446Z,10.10
2023-01-25T18:02:44.674Z,13.30
2023-01-25T18:05:13.838Z,11.40
2023-01-25T18:07:42.869Z,8.10
2023-01-25T18:10:12.764Z,8.50
2023-01-25T18:12:41.099Z,8.50
2023-01-25T18:15:11.045Z,6.70
2023-01-25T18:17:39.470Z,8.30
2023-01-25T18:20:10.939Z,6.70
2023-01-25T18:22:40.905Z,7.10
2023-01-25T18:25:30.012Z,7.10
2023-01-25T18:27:58.804Z,8.20
2023-01-25T18:30:36.573Z,7.40
2023-01-25T18:33:05.353Z,10.90
2023-01-25T18:35:34.344Z,9.80
2023-01-25T18:38:02.609Z,6.70
2023-01-25T18:40:30.923Z,7.60
2023-01-25T18:42:59.194Z,6.10
2023-01-25T18:45:27.606Z,7.90
2023-01-25T18:47:56.152Z,5.70
2023-01-25T18:50:24.414Z,5.10
2023-01-25T18:52:53.657Z,3.30
2023-01-25T18:55:21.965Z,5.10
2023-01-25T18:57:50.227Z,5.50
2023-01-25T19:00:19.187Z,5.20
2023-01-25T19:02:47.587Z,4.70
2023-01-25T19:05:17.997Z,4.90
2023-01-25T19:07:46.238Z,4.30
2023-01-25T19:10:14.695Z,6.60
2023-01-25T19:12:43.191Z,7.70
2023-01-25T19:15:12.243Z,8.90
2023-01-25T19:17:40.615Z,5.60
2023-01-25T19:20:11.223Z,5.40
2023-01-25T19:22:39.880Z,5.40
2023-01-25T19:25:09.780Z,4.30
2023-01-25T19:27:38.210Z,4.80
2023-01-25T19:30:09.366Z,5.10
2023-01-25T19:35:06.903Z,4.20
2023-01-25T19:37:35.282Z,4.30
2023-01-25T19:40:04.483Z,8.20
2023-01-25T19:42:32.812Z,6.40
2023-01-25T19:45:02.267Z,4.70
2023-01-25T19:47:30.576Z,6.70
2023-01-25T19:49:59.924Z,7.60
2023-01-25T19:52:28.795Z,8.00
2023-01-25T19:54:57.058Z,6.90
2023-01-25T19:57:25.680Z,5.50
2023-01-25T19:59:54.284Z,4.10
2023-01-25T20:02:22.587Z,5.80
2023-01-25T20:04:51.282Z,4.90
2023-01-25T20:07:19.558Z,4.50
2023-01-25T20:09:47.932Z,4.60
2023-01-25T20:12:16.203Z,4.80
2023-01-25T20:14:44.487Z,4.90
2023-01-25T20:17:13.465Z,4.80
2023-01-25T20:19:42.007Z,4.60
2023-01-25T20:22:11.843Z,4.60
2023-01-25T20:24:40.126Z,5.30
2023-01-25T20:27:08.647Z,3.60
2023-01-25T20:29:37.178Z,4.60
2023-01-25T20:32:06.502Z,3.20
2023-01-25T20:34:35.057Z,3.60
2023-01-25T20:37:03.353Z,4.20
2023-01-25T20:39:31.755Z,4.10
2023-01-25T20:42:00.580Z,5.70
2023-01-25T20:44:30.019Z,5.00
2023-01-25T20:46:58.500Z,7.50
2023-01-25T20:49:26.844Z,6.20
2023-01-25T20:51:55.106Z,6.80
2023-01-25T20:54:23.378Z,5.30
2023-01-25T20:56:51.755Z,4.50
2023-01-25T20:59:20.102Z,5.90
2023-01-25T21:01:49.608Z,6.50
2023-01-25T21:04:17.961Z,4.50
2023-01-25T21:06:46.205Z,5.70
2023-01-25T21:09:14.718Z,4.40
2023-01-25T21:11:43.015Z,4.90
2023-01-25T21:14:11.329Z,6.00
2023-01-25T21:16:39.693Z,7.50
2023-01-25T21:19:08.203Z,5.80
2023-01-25T21:21:37.771Z,5.10
2023-01-25T21:24:08.686Z,4.00
2023-01-25T21:26:37.602Z,3.70
2023-01-25T21:29:06.796Z,4.00
2023-01-25T21:31:36.852Z,5.50
2023-01-25T21:34:05.786Z,5.20
2023-01-25T21:36:34.167Z,4.50
2023-01-25T21:39:02.866Z,5.50
2023-01-25T21:41:32.767Z,5.30
2023-01-25T21:44:19.796Z,3.40
2023-01-25T21:47:16.467Z,4.60
2023-01-25T21:49:55.063Z,4.20
2023-01-25T21:52:23.420Z,3.80
2023-01-25T21:54:52.015Z,4.40
2023-01-25T21:57:20.289Z,5.00
2023-01-25T21:59:48.609Z,5.30
2023-01-25T22:02:16.968Z,5.70
2023-01-25T22:04:45.370Z,5.40
2023-01-25T22:07:13.708Z,4.40
2023-01-25T22:09:41.991Z,3.50
2023-01-25T22:12:11.635Z,4.70
2023-01-25T22:14:40.082Z,5.10
2023-01-25T22:17:36.970Z,4.20
2023-01-25T22:20:09.060Z,4.30
2023-01-25T22:22:37.484Z,3.30
2023-01-25T22:25:06.991Z,3.90
2023-01-25T22:27:48.793Z,4.10
2023-01-25T22:30:17.146Z,4.10
2023-01-25T22:32:45.401Z,4.00
2023-01-25T22:35:13.852Z,4.00
2023-01-25T22:37:42.164Z,3.90
2023-01-25T22:40:12.976Z,3.10
2023-01-25T22:42:41.490Z,2.70
2023-01-25T22:45:10.903Z,2.80
2023-01-25T22:47:41.111Z,3.90
2023-01-25T22:50:11.535Z,3.90
2023-01-25T22:52:40.023Z,2.70
2023-01-25T22:55:09.846Z,3.70
2023-01-25T22:57:38.097Z,2.80
2023-01-25T23:00:12.220Z,3.10
2023-01-25T23:02:40.704Z,3.90
2023-01-25T23:05:09.709Z,4.10
2023-01-25T23:07:38.052Z,3.80
2023-01-25T23:10:09.617Z,4.00
2023-01-25T23:12:38.223Z,4.10
2023-01-25T23:15:14.982Z,3.90
2023-01-25T23:18:02.320Z,3.00
2023-01-25T23:20:30.830Z,3.60
2023-01-25T23:22:59.131Z,4.10
2023-01-25T23:25:28.820Z,3.50
2023-01-25T23:27:57.247Z,3.30
2023-01-25T23:30:25.525Z,5.40
2023-01-25T23:32:53.748Z,5.00
2023-01-25T23:35:22.006Z,5.20
2023-01-25T23:37:50.428Z,5.80
2023-01-25T23:40:19.060Z,4.70
2023-01-25T23:42:47.343Z,5.90
2023-01-25T23:45:15.869Z,4.10
2023-01-25T23:47:44.392Z,6.20
2023-01-25T23:50:13.533Z,4.60
2023-01-25T23:52:41.930Z,6.00
2023-01-25T23:55:10.740Z,4.50
2023-01-25T23:57:39.052Z,6.30
